createdAt,value
2018-05-25T00:00:51.129Z,0
2018-05-25T00:01:51.183Z,0
2018-05-25T00:02:51.188Z,0
2018-05-25T00:03:50.932Z,0
2018-05-25T00:04:51.258Z,0
2018-05-25T00:05:50.748Z,0
2018-05-25T00:06:51.281Z,0
2018-05-25T00:07:51.033Z,0
2018-05-25T00:08:50.780Z,0
2018-05-25T00:10:05.480Z,0
2018-05-25T00:11:06.005Z,0
2018-05-25T00:11:51.431Z,0
2018-05-25T00:13:06.086Z,0
2018-05-25T00:13:51.428Z,0
2018-05-25T00:14:51.479Z,0
2018-05-25T00:16:05.860Z,0
2018-05-25T00:17:51.538Z,0
2018-05-25T00:18:51.326Z,0
2018-05-25T00:19:51.621Z,0
2018-05-25T00:20:51.598Z,0
2018-05-25T00:21:51.645Z,0
2018-05-25T00:22:51.638Z,0
2018-05-25T00:23:51.437Z,0
2018-05-25T00:24:52.033Z,0
2018-05-25T00:25:51.760Z,0
2018-05-25T00:26:51.759Z,0
2018-05-25T00:27:51.798Z,0
2018-05-25T00:29:51.896Z,0
2018-05-25T00:30:51.825Z,0
2018-05-25T00:32:06.537Z,0
2018-05-25T00:32:51.881Z,0
2018-05-25T00:33:51.915Z,0
2018-05-25T00:34:51.689Z,0
2018-05-25T00:35:51.983Z,0
2018-05-25T00:36:52.016Z,0
2018-05-25T00:37:52.008Z,0
2018-05-25T00:39:52.046Z,0
2018-05-25T00:40:52.099Z,0
2018-05-25T00:41:51.825Z,0
2018-05-25T00:42:52.162Z,0
2018-05-25T00:43:51.897Z,0
2018-05-25T00:44:52.177Z,0
2018-05-25T00:45:52.235Z,0
2018-05-25T00:47:06.891Z,0
2018-05-25T00:48:06.616Z,0
2018-05-25T00:48:52.399Z,0
2018-05-25T00:49:52.274Z,0
2018-05-25T00:50:52.336Z,0
2018-05-25T00:51:52.328Z,0
2018-05-25T00:52:52.400Z,0
2018-05-25T00:53:52.411Z,0
2018-05-25T00:54:52.168Z,0
2018-05-25T00:55:52.423Z,0
2018-05-25T00:56:52.553Z,0
2018-05-25T00:57:52.487Z,0
2018-05-25T00:59:07.157Z,0
2018-05-25T00:59:51.988Z,0
2018-05-25T01:00:52.594Z,0
2018-05-25T01:02:07.211Z,0
2018-05-25T01:02:52.635Z,0
2018-05-25T01:04:07.123Z,0
2018-05-25T01:04:52.651Z,0
2018-05-25T01:05:52.668Z,0
2018-05-25T01:06:52.685Z,0
2018-05-25T01:07:52.222Z,0
2018-05-25T01:08:52.734Z,0
2018-05-25T01:09:52.800Z,0
2018-05-25T01:10:52.788Z,0
2018-05-25T01:11:52.581Z,0
2018-05-25T01:12:52.560Z,0
2018-05-25T01:13:52.848Z,0
2018-05-25T01:14:52.940Z,0
2018-05-25T01:15:53.036Z,0
2018-05-25T01:17:07.601Z,0
2018-05-25T01:17:52.684Z,0
2018-05-25T01:19:52.990Z,0
2018-05-25T01:20:52.757Z,0
2018-05-25T01:22:53.077Z,0
2018-05-25T01:23:53.101Z,0
2018-05-25T01:24:53.260Z,0
2018-05-25T01:25:53.131Z,0
2018-05-25T01:26:53.202Z,0
2018-05-25T01:27:52.932Z,0
2018-05-25T01:28:53.249Z,0
2018-05-25T01:29:53.222Z,0
2018-05-25T01:32:53.300Z,0
2018-05-25T01:33:53.368Z,0
2018-05-25T01:34:53.353Z,0
2018-05-25T01:35:53.148Z,0
2018-05-25T01:36:52.863Z,0
2018-05-25T01:37:53.165Z,0
2018-05-25T01:38:53.451Z,0
2018-05-25T01:39:53.509Z,0
2018-05-25T01:40:53.525Z,0
2018-05-25T01:41:53.523Z,0
2018-05-25T01:42:53.280Z,0
2018-05-25T01:43:53.554Z,0
2018-05-25T01:44:53.618Z,0
2018-05-25T01:45:53.357Z,0
2018-05-25T01:46:53.679Z,0
2018-05-25T01:48:08.299Z,0
2018-05-25T01:48:53.720Z,0
2018-05-25T01:49:53.698Z,0
2018-05-25T01:51:08.395Z,0
2018-05-25T01:52:53.796Z,0
2018-05-25T01:53:53.785Z,0
2018-05-25T01:54:53.639Z,0
2018-05-25T01:55:53.854Z,0
2018-05-25T01:56:53.908Z,0
2018-05-25T01:57:53.895Z,0
2018-05-25T01:58:53.956Z,0
2018-05-25T01:59:53.668Z,0
2018-05-25T02:00:53.973Z,0
2018-05-25T02:01:53.990Z,0
2018-05-25T02:02:53.782Z,0
2018-05-25T02:03:53.797Z,0
2018-05-25T02:05:08.436Z,0
2018-05-25T02:06:08.480Z,0
2018-05-25T02:07:53.858Z,4
2018-05-25T02:08:53.898Z,4
2018-05-25T02:10:08.571Z,0
2018-05-25T02:10:54.242Z,0
2018-05-25T02:12:54.014Z,4
2018-05-25T02:13:54.251Z,4
2018-05-25T02:14:54.305Z,4
2018-05-25T02:15:54.316Z,4
2018-05-25T02:16:54.373Z,4
2018-05-25T02:17:54.362Z,4
2018-05-25T02:18:54.421Z,4
2018-05-25T02:19:54.138Z,8
2018-05-25T02:20:54.466Z,8
2018-05-25T02:21:54.189Z,8
2018-05-25T02:23:09.148Z,12
2018-05-25T02:23:54.484Z,12
2018-05-25T02:24:54.523Z,12
2018-05-25T02:25:54.578Z,12
2018-05-25T02:27:08.962Z,16
2018-05-25T02:27:54.361Z,20
2018-05-25T02:28:54.606Z,20
2018-05-25T02:30:54.657Z,28
2018-05-25T02:32:09.358Z,28
2018-05-25T02:32:54.728Z,32
2018-05-25T02:33:54.740Z,36
2018-05-25T02:34:54.768Z,40
2018-05-25T02:36:09.483Z,44
2018-05-25T02:36:54.846Z,52
2018-05-25T02:37:54.876Z,56
2018-05-25T02:39:09.499Z,68
2018-05-25T02:39:54.905Z,68
2018-05-25T02:40:54.897Z,80
2018-05-25T02:41:54.918Z,88
2018-05-25T02:43:54.989Z,108
2018-05-25T02:44:54.773Z,120
2018-05-25T02:45:54.783Z,132
2018-05-25T02:46:55.037Z,148
2018-05-25T02:47:55.098Z,160
2018-05-25T02:49:55.213Z,192
2018-05-25T02:51:09.764Z,212
2018-05-25T02:51:54.878Z,224
2018-05-25T02:53:09.858Z,252
2018-05-25T02:54:09.835Z,268
2018-05-25T02:54:54.992Z,288
2018-05-25T02:55:55.299Z,308
2018-05-25T02:57:09.692Z,340
2018-05-25T02:57:55.341Z,360
2018-05-25T02:58:55.321Z,384
2018-05-25T02:59:55.367Z,412
2018-05-25T03:00:55.360Z,440
2018-05-25T03:02:10.064Z,476
2018-05-25T03:02:55.445Z,500
2018-05-25T03:03:55.448Z,532
2018-05-25T03:04:55.469Z,568
2018-05-25T03:06:10.127Z,608
2018-05-25T03:06:55.537Z,640
2018-05-25T03:09:10.204Z,728
2018-05-25T03:09:55.353Z,760
2018-05-25T03:11:55.659Z,848
2018-05-25T03:13:10.013Z,908
2018-05-25T03:13:55.706Z,944
2018-05-25T03:14:55.694Z,996
2018-05-25T03:15:55.708Z,1048
2018-05-25T03:16:55.837Z,1100
2018-05-25T03:17:55.784Z,1160
2018-05-25T03:18:55.782Z,1216
2018-05-25T03:20:10.473Z,1292
2018-05-25T03:20:55.563Z,1336
2018-05-25T03:21:55.881Z,1404
2018-05-25T03:22:55.860Z,1468
2018-05-25T03:23:55.640Z,1536
2018-05-25T03:25:10.715Z,1616
2018-05-25T03:26:10.791Z,1684
2018-05-25T03:27:56.007Z,1804
2018-05-25T03:28:56.080Z,1876
2018-05-25T03:29:56.021Z,1948
2018-05-25T03:31:10.693Z,2044
2018-05-25T03:31:55.845Z,2100
2018-05-25T03:32:56.107Z,2176
2018-05-25T03:33:56.156Z,2252
2018-05-25T03:34:55.901Z,2332
2018-05-25T03:35:56.190Z,2412
2018-05-25T03:36:56.128Z,2492
2018-05-25T03:38:10.855Z,2592
2018-05-25T03:38:56.009Z,2656
2018-05-25T03:40:10.640Z,2764
2018-05-25T03:42:10.947Z,3308
2018-05-25T03:42:56.366Z,4324
2018-05-25T03:43:56.463Z,4872
2018-05-25T03:44:56.150Z,3548
2018-05-25T03:45:56.394Z,3724
2018-05-25T03:46:56.504Z,3856
2018-05-25T03:47:56.439Z,3504
2018-05-25T03:49:11.128Z,3720
2018-05-25T03:49:56.499Z,4116
2018-05-25T03:50:56.555Z,3640
2018-05-25T03:51:56.302Z,3692
2018-05-25T03:52:56.571Z,3772
2018-05-25T03:53:56.599Z,3956
2018-05-25T03:54:56.602Z,4264
2018-05-25T03:56:11.300Z,4020
2018-05-25T03:56:56.652Z,4188
2018-05-25T03:58:11.350Z,4244
2018-05-25T03:58:56.464Z,4288
2018-05-25T03:59:56.736Z,4356
2018-05-25T04:00:56.490Z,5420
2018-05-25T04:02:11.411Z,4928
2018-05-25T04:02:56.561Z,5436
2018-05-25T04:03:56.554Z,6772
2018-05-25T04:04:56.612Z,5392
2018-05-25T04:06:11.533Z,5556
2018-05-25T04:06:56.638Z,5232
2018-05-25T04:08:11.562Z,6032
2018-05-25T04:09:11.590Z,11224
2018-05-25T04:09:57.022Z,14848
2018-05-25T04:10:56.750Z,13072
2018-05-25T04:11:56.996Z,9596
2018-05-25T04:12:57.045Z,9672
2018-05-25T04:14:11.725Z,10444
2018-05-25T04:16:11.779Z,7524
2018-05-25T04:16:56.866Z,6788
2018-05-25T04:17:57.179Z,6232
2018-05-25T04:18:56.901Z,6368
2018-05-25T04:19:56.717Z,6384
2018-05-25T04:20:57.221Z,6344
2018-05-25T04:21:57.273Z,7960
2018-05-25T04:22:57.034Z,9780
2018-05-25T04:23:57.285Z,11688
2018-05-25T04:24:57.341Z,10176
2018-05-25T04:25:57.379Z,9864
2018-05-25T04:27:12.035Z,8124
2018-05-25T04:27:57.425Z,7824
2018-05-25T04:29:12.077Z,7536
2018-05-25T04:29:57.471Z,7676
2018-05-25T04:30:57.462Z,10116
2018-05-25T04:31:57.221Z,8764
2018-05-25T04:32:57.495Z,7440
2018-05-25T04:33:57.558Z,11476
2018-05-25T04:34:57.709Z,30368
2018-05-25T04:35:57.309Z,45856
2018-05-25T04:36:57.472Z,36480
2018-05-25T04:37:57.354Z,37696
2018-05-25T04:38:57.682Z,50848
2018-05-25T04:39:57.704Z,55104
2018-05-25T04:40:57.717Z,55648
2018-05-25T04:41:57.725Z,53632
2018-05-25T04:42:57.741Z,54912
2018-05-25T04:43:57.807Z,56768
2018-05-25T04:44:57.810Z,59200
2018-05-25T04:45:57.855Z,60704
2018-05-25T04:48:57.904Z,63808
2018-05-25T04:49:57.922Z,64448
2018-05-25T04:50:57.994Z,64000
2018-05-25T04:51:58.003Z,64160
2018-05-25T04:52:58.043Z,63584
2018-05-25T04:53:57.766Z,62656
2018-05-25T04:54:58.043Z,64512
2018-05-25T04:56:12.836Z,67328
2018-05-25T04:56:58.117Z,69952
2018-05-25T04:57:58.171Z,69056
2018-05-25T04:58:58.116Z,69120
2018-05-25T04:59:57.983Z,69248
2018-05-25T05:01:12.880Z,70464
2018-05-25T05:01:58.047Z,70432
2018-05-25T05:02:58.046Z,72576
2018-05-25T05:03:58.333Z,73632
2018-05-25T05:04:58.660Z,69664
2018-05-25T05:05:58.378Z,71456
2018-05-25T05:06:58.421Z,70848
2018-05-25T05:07:58.479Z,73504
2018-05-25T05:09:12.874Z,75840
2018-05-25T05:09:58.554Z,75680
2018-05-25T05:10:58.537Z,78208
2018-05-25T05:12:13.253Z,75488
2018-05-25T05:12:58.598Z,74432
2018-05-25T05:13:58.121Z,73952
2018-05-25T05:15:58.736Z,77920
2018-05-25T05:17:13.411Z,78176
2018-05-25T05:17:58.767Z,78624
2018-05-25T05:18:58.304Z,80576
2018-05-25T05:19:58.823Z,80096
2018-05-25T05:21:58.967Z,76000
2018-05-25T05:22:59.056Z,79328
2018-05-25T05:23:59.007Z,79072
2018-05-25T05:24:58.994Z,81824
2018-05-25T05:25:58.792Z,80352
2018-05-25T05:27:58.596Z,84352
2018-05-25T05:28:58.894Z,82048
2018-05-25T05:29:59.203Z,80896
2018-05-25T05:30:59.210Z,84928
2018-05-25T05:33:13.916Z,85536
2018-05-25T05:33:59.077Z,86144
2018-05-25T05:34:59.348Z,84544
2018-05-25T05:35:59.422Z,86016
2018-05-25T05:36:59.414Z,88160
2018-05-25T05:37:59.176Z,86752
2018-05-25T05:38:59.227Z,89216
2018-05-25T05:39:59.538Z,86624
2018-05-25T05:41:14.035Z,89216
2018-05-25T05:41:59.574Z,90464
2018-05-25T05:42:59.384Z,90304
2018-05-25T05:43:59.648Z,91296
2018-05-25T05:45:14.346Z,90592
2018-05-25T05:46:14.376Z,88992
2018-05-25T05:49:14.498Z,90176
2018-05-25T05:49:59.873Z,88480
2018-05-25T05:51:00.091Z,89792
2018-05-25T05:51:59.960Z,88352
2018-05-25T05:52:59.995Z,90144
2018-05-25T05:54:00.015Z,91232
2018-05-25T05:55:00.082Z,88448
2018-05-25T05:56:00.073Z,88704
2018-05-25T05:57:14.788Z,89504
2018-05-25T05:58:00.142Z,88032
2018-05-25T05:58:59.951Z,84960
2018-05-25T06:01:00.002Z,85888
2018-05-25T06:03:00.068Z,89888
2018-05-25T06:04:15.033Z,92224
2018-05-25T06:05:00.425Z,92352
2018-05-25T06:06:00.522Z,92928
2018-05-25T06:07:00.462Z,92800
2018-05-25T06:08:00.534Z,90848
2018-05-25T06:10:00.068Z,86848
2018-05-25T06:11:00.657Z,89280
2018-05-25T06:12:00.681Z,91648
2018-05-25T06:13:15.333Z,92512
2018-05-25T06:14:00.740Z,90592
2018-05-25T06:15:00.766Z,89984
2018-05-25T06:16:00.840Z,89216
2018-05-25T06:17:00.823Z,87392
2018-05-25T06:18:15.545Z,87712
2018-05-25T06:19:00.900Z,87776
2018-05-25T06:20:01.152Z,91712
2018-05-25T06:21:00.988Z,95040
2018-05-25T06:22:00.782Z,90848
2018-05-25T06:23:01.086Z,89088
2018-05-25T06:24:01.096Z,89664
2018-05-25T06:25:01.132Z,92128
2018-05-25T06:26:00.934Z,92704
2018-05-25T06:27:01.197Z,90048
2018-05-25T06:28:01.258Z,85184
2018-05-25T06:29:01.001Z,87424
2018-05-25T06:30:01.075Z,90208
2018-05-25T06:31:15.730Z,92288
2018-05-25T06:32:16.059Z,89440
2018-05-25T06:33:01.449Z,88128
2018-05-25T06:34:01.207Z,90848
2018-05-25T06:35:01.616Z,91136
2018-05-25T06:36:16.171Z,91008
2018-05-25T06:37:01.605Z,86656
2018-05-25T06:38:01.332Z,86784
2018-05-25T06:39:01.688Z,87680
2018-05-25T06:40:16.356Z,88480
2018-05-25T06:41:01.739Z,89856
2018-05-25T06:42:01.754Z,89696
2018-05-25T06:43:01.794Z,89760
2018-05-25T06:44:01.862Z,89280
2018-05-25T06:45:01.879Z,88288
2018-05-25T06:46:01.957Z,85216
2018-05-25T06:47:01.401Z,85632
2018-05-25T06:48:01.470Z,87456
2018-05-25T06:49:02.005Z,89920
2018-05-25T06:50:01.817Z,89760
2018-05-25T06:51:02.077Z,91456
2018-05-25T06:53:02.165Z,87520
2018-05-25T06:54:01.973Z,85760
2018-05-25T06:56:02.318Z,83328
2018-05-25T06:57:02.067Z,82752
2018-05-25T06:58:02.603Z,83648
2018-05-25T06:59:02.370Z,84192
2018-05-25T07:01:02.493Z,86880
2018-05-25T07:02:16.888Z,87520
2018-05-25T07:03:02.571Z,85216
2018-05-25T07:04:02.454Z,82944
2018-05-25T07:06:17.027Z,83872
2018-05-25T07:07:02.414Z,83328
2018-05-25T07:08:17.402Z,83424
2018-05-25T07:09:02.761Z,82560
2018-05-25T07:10:02.839Z,82592
2018-05-25T07:11:02.580Z,80480
2018-05-25T07:12:02.921Z,76512
2018-05-25T07:13:02.646Z,74656
2018-05-25T07:14:02.965Z,76000
2018-05-25T07:15:02.745Z,78528
2018-05-25T07:16:17.445Z,82144
2018-05-25T07:17:17.476Z,79968
2018-05-25T07:18:03.099Z,77056
2018-05-25T07:19:03.177Z,77568
2018-05-25T07:20:03.210Z,78560
2018-05-25T07:21:03.227Z,78560
2018-05-25T07:22:17.936Z,75328
2018-05-25T07:23:03.297Z,78304
2018-05-25T07:24:17.451Z,78048
2018-05-25T07:25:03.413Z,74912
2018-05-25T07:27:03.219Z,75264
2018-05-25T07:28:03.239Z,76832
2018-05-25T07:29:03.021Z,76192
2018-05-25T07:30:03.293Z,77760
2018-05-25T07:31:03.337Z,76672
2018-05-25T07:32:03.655Z,75200
2018-05-25T07:33:18.386Z,73632
2018-05-25T07:34:18.395Z,73568
2018-05-25T07:35:03.233Z,74592
2018-05-25T07:36:03.570Z,74336
2018-05-25T07:37:03.314Z,68576
2018-05-25T07:38:18.515Z,68832
2018-05-25T07:39:33.276Z,72288
2018-05-25T07:40:03.951Z,73376
2018-05-25T07:41:03.755Z,72704
2018-05-25T07:42:04.030Z,69600
2018-05-25T07:43:03.828Z,64160
2018-05-25T07:44:04.087Z,67296
2018-05-25T07:45:03.619Z,70688
2018-05-25T07:46:04.186Z,68352
2018-05-25T07:47:03.715Z,67936
2018-05-25T07:48:03.719Z,67808
2018-05-25T07:49:04.066Z,66720
2018-05-25T07:50:04.356Z,67200
2018-05-25T07:51:04.143Z,67040
2018-05-25T07:52:19.056Z,63616
2018-05-25T07:53:04.493Z,66528
2018-05-25T07:54:19.238Z,68384
2018-05-25T07:55:04.275Z,67040
2018-05-25T07:56:04.564Z,64544
2018-05-25T07:57:04.367Z,65504
2018-05-25T07:58:04.404Z,66464
2018-05-25T08:00:04.205Z,62816
2018-05-25T08:01:03.964Z,60736
2018-05-25T08:02:04.257Z,64512
2018-05-25T08:03:04.058Z,63648
2018-05-25T08:04:04.847Z,60896
2018-05-25T08:05:19.543Z,61216
2018-05-25T08:06:04.168Z,63136
2018-05-25T08:07:04.975Z,63488
2018-05-25T08:08:04.785Z,64480
2018-05-25T08:09:04.801Z,62944
2018-05-25T08:10:05.125Z,61760
2018-05-25T08:11:19.773Z,60256
2018-05-25T08:12:05.423Z,59488
2018-05-25T08:13:05.220Z,60128
2018-05-25T08:14:04.723Z,62336
2018-05-25T08:15:05.281Z,62464
2018-05-25T08:16:05.082Z,62240
2018-05-25T08:17:05.346Z,64416
2018-05-25T08:18:05.171Z,63264
2018-05-25T08:19:05.431Z,60000
2018-05-25T08:20:05.503Z,58784
2018-05-25T08:21:04.963Z,58624
2018-05-25T08:22:05.909Z,56032
2018-05-25T08:23:20.231Z,56480
2018-05-25T08:24:20.278Z,63456
2018-05-25T08:25:05.689Z,64704
2018-05-25T08:26:05.412Z,62560
2018-05-25T08:27:20.133Z,58560
2018-05-25T08:28:05.849Z,58144
2018-05-25T08:29:05.808Z,59136
2018-05-25T08:31:05.903Z,53184
2018-05-25T08:32:05.414Z,53472
2018-05-25T08:33:05.418Z,54208
2018-05-25T08:34:06.023Z,51072
2018-05-25T08:35:06.010Z,50592
2018-05-25T08:36:06.097Z,49280
2018-05-25T08:37:05.577Z,49984
2018-05-25T08:38:06.177Z,41568
2018-05-25T08:39:05.915Z,28384
2018-05-25T08:40:05.983Z,21920
2018-05-25T08:41:20.882Z,21024
2018-05-25T08:42:06.427Z,20800
2018-05-25T08:43:21.107Z,20512
2018-05-25T08:44:21.021Z,20320
2018-05-25T08:45:05.855Z,20192
2018-05-25T08:46:06.493Z,20064
2018-05-25T08:47:06.189Z,19968
2018-05-25T08:48:06.536Z,19936
2018-05-25T08:49:06.556Z,19712
2018-05-25T08:50:06.646Z,19648
2018-05-25T08:51:06.337Z,19520
2018-05-25T08:52:06.378Z,19392
2018-05-25T08:53:06.431Z,19360
2018-05-25T08:54:06.481Z,19200
2018-05-25T08:55:06.878Z,19136
2018-05-25T08:56:06.524Z,19040
2018-05-25T08:57:06.580Z,18912
2018-05-25T08:58:06.852Z,18848
2018-05-25T08:59:21.495Z,18752
2018-05-25T09:00:06.397Z,18720
2018-05-25T09:01:21.400Z,18496
2018-05-25T09:02:21.449Z,18432
2018-05-25T09:03:07.045Z,18304
2018-05-25T09:04:21.760Z,18304
2018-05-25T09:05:07.104Z,18304
2018-05-25T09:06:06.892Z,18272
2018-05-25T09:07:06.938Z,18176
2018-05-25T09:08:07.259Z,18112
2018-05-25T09:09:21.639Z,17952
2018-05-25T09:10:07.333Z,17856
2018-05-25T09:13:07.424Z,17464
2018-05-25T09:14:21.834Z,17496
2018-05-25T09:15:07.484Z,17448
2018-05-25T09:16:07.498Z,17432
2018-05-25T09:17:07.579Z,17384
2018-05-25T09:18:07.324Z,17188
2018-05-25T09:19:22.023Z,16980
2018-05-25T09:20:07.667Z,16900
2018-05-25T09:22:07.448Z,16772
2018-05-25T09:23:07.485Z,16608
2018-05-25T09:24:07.831Z,16520
2018-05-25T09:25:07.669Z,16400
2018-05-25T09:26:07.634Z,16372
2018-05-25T09:27:07.634Z,16316
2018-05-25T09:28:07.699Z,16248
2018-05-25T09:30:07.742Z,16032
2018-05-25T09:31:22.729Z,15960
2018-05-25T09:32:08.119Z,15900
2018-05-25T09:33:08.151Z,15812
2018-05-25T09:34:07.881Z,15812
2018-05-25T09:35:07.995Z,15724
2018-05-25T09:36:08.212Z,15664
2018-05-25T09:37:08.040Z,15588
2018-05-25T09:38:08.012Z,15516
2018-05-25T09:39:08.070Z,15472
2018-05-25T09:40:07.823Z,15444
2018-05-25T09:41:08.160Z,15352
2018-05-25T09:42:08.214Z,15288
2018-05-25T09:44:07.976Z,15072
2018-05-25T09:45:08.279Z,15064
2018-05-25T09:46:23.203Z,15244
2018-05-25T09:47:22.969Z,15312
2018-05-25T09:48:08.403Z,15372
2018-05-25T09:49:08.655Z,15464
2018-05-25T09:50:08.447Z,15552
2018-05-25T09:51:08.495Z,15544
2018-05-25T09:52:08.490Z,15640
2018-05-25T09:53:08.844Z,15708
2018-05-25T09:54:08.320Z,15468
2018-05-25T09:55:08.360Z,15052
2018-05-25T09:56:08.456Z,6616
2018-05-25T09:57:08.682Z,6708
2018-05-25T09:58:09.003Z,7184
2018-05-25T09:59:08.775Z,8036
2018-05-25T10:00:08.865Z,16140
2018-05-25T10:02:23.789Z,7696
2018-05-25T10:03:09.273Z,16072
2018-05-25T10:04:09.207Z,15932
2018-05-25T10:06:08.454Z,11208
2018-05-25T10:07:08.739Z,16752
2018-05-25T10:08:09.337Z,16692
2018-05-25T10:09:24.007Z,16736
2018-05-25T10:10:09.165Z,16788
2018-05-25T10:11:09.442Z,16876
2018-05-25T10:12:23.855Z,16916
2018-05-25T10:14:09.233Z,16828
2018-05-25T10:15:09.596Z,16688
2018-05-25T10:16:09.644Z,16412
2018-05-25T10:17:24.023Z,16820
2018-05-25T10:18:24.029Z,17280
2018-05-25T10:19:09.704Z,17600
2018-05-25T10:20:24.084Z,18112
2018-05-25T10:22:09.545Z,18208
2018-05-25T10:23:09.798Z,17920
2018-05-25T10:25:09.658Z,17152
2018-05-25T10:26:09.931Z,16752
2018-05-25T10:27:09.951Z,16720
2018-05-25T10:29:24.670Z,9388
2018-05-25T10:30:09.784Z,9504
2018-05-25T10:31:09.589Z,9668
2018-05-25T10:32:09.844Z,9680
2018-05-25T10:33:09.895Z,9904
2018-05-25T10:34:24.833Z,17920
2018-05-25T10:35:10.543Z,17792
2018-05-25T10:36:10.230Z,17536
2018-05-25T10:37:10.317Z,17728
2018-05-25T10:38:10.047Z,17984
2018-05-25T10:39:10.380Z,17920
2018-05-25T10:40:10.106Z,17952
2018-05-25T10:41:10.376Z,18048
2018-05-25T10:42:10.195Z,18080
2018-05-25T10:43:10.231Z,11052
2018-05-25T10:44:09.985Z,10232
2018-05-25T10:45:10.547Z,9792
2018-05-25T10:46:10.606Z,9364
2018-05-25T10:47:10.609Z,13804
2018-05-25T10:48:10.384Z,9684
2018-05-25T10:49:25.279Z,11616
2018-05-25T10:50:10.437Z,8948
2018-05-25T10:51:10.430Z,9536
2018-05-25T10:52:10.466Z,9724
2018-05-25T10:53:10.501Z,10060
2018-05-25T10:54:10.818Z,11324
2018-05-25T10:55:10.595Z,16960
2018-05-25T10:56:10.601Z,16440
2018-05-25T10:57:10.781Z,16148
2018-05-25T10:58:10.952Z,15916
2018-05-25T10:59:10.672Z,15592
2018-05-25T11:00:11.024Z,15200
2018-05-25T11:01:11.019Z,14960
2018-05-25T11:02:10.793Z,14504
2018-05-25T11:03:11.068Z,14692
2018-05-25T11:04:10.876Z,10432
2018-05-25T11:05:10.888Z,10136
2018-05-25T11:06:11.194Z,12956
2018-05-25T11:07:11.191Z,15324
2018-05-25T11:08:10.969Z,15144
2018-05-25T11:09:25.679Z,14756
2018-05-25T11:10:25.426Z,13980
2018-05-25T11:11:11.107Z,13760
2018-05-25T11:12:26.027Z,13580
2018-05-25T11:13:11.408Z,13500
2018-05-25T11:14:11.151Z,10700
2018-05-25T11:15:11.461Z,7884
2018-05-25T11:16:10.989Z,7904
2018-05-25T11:17:11.013Z,8188
2018-05-25T11:18:11.584Z,9928
2018-05-25T11:19:11.303Z,12996
2018-05-25T11:20:11.111Z,13228
2018-05-25T11:21:26.280Z,13196
2018-05-25T11:22:11.669Z,12448
2018-05-25T11:23:11.440Z,12244
2018-05-25T11:24:11.504Z,12752
2018-05-25T11:25:11.766Z,12796
2018-05-25T11:26:11.541Z,12676
2018-05-25T11:27:11.988Z,12328
2018-05-25T11:28:11.888Z,12068
2018-05-25T11:29:11.869Z,11736
2018-05-25T11:30:11.675Z,8660
2018-05-25T11:31:11.686Z,9576
2018-05-25T11:32:12.005Z,12244
2018-05-25T11:33:11.229Z,12180
2018-05-25T11:34:11.554Z,12084
2018-05-25T11:35:11.809Z,12000
2018-05-25T11:36:12.137Z,12184
2018-05-25T11:37:26.785Z,12404
2018-05-25T11:38:12.157Z,11384
2018-05-25T11:39:11.948Z,12500
2018-05-25T11:40:12.078Z,11500
2018-05-25T11:41:12.015Z,11240
2018-05-25T11:42:12.011Z,9376
2018-05-25T11:43:12.073Z,10232
2018-05-25T11:44:11.820Z,11096
2018-05-25T11:45:12.132Z,10996
2018-05-25T11:46:12.402Z,10656
2018-05-25T11:47:12.462Z,10112
2018-05-25T11:48:12.228Z,9476
2018-05-25T11:49:11.981Z,8564
2018-05-25T11:50:12.264Z,9352
2018-05-25T11:51:12.673Z,9400
2018-05-25T11:52:12.328Z,9408
2018-05-25T11:53:27.297Z,9392
2018-05-25T11:54:12.638Z,9460
2018-05-25T11:55:12.694Z,9672
2018-05-25T11:57:12.754Z,10096
2018-05-25T11:58:12.798Z,10192
2018-05-25T12:00:12.870Z,10104
2018-05-25T12:01:12.324Z,10444
2018-05-25T12:02:12.646Z,8676
2018-05-25T12:03:27.311Z,10256
2018-05-25T12:05:27.671Z,10136
2018-05-25T12:06:13.106Z,10468
2018-05-25T12:07:12.804Z,10796
2018-05-25T12:08:12.794Z,11036
2018-05-25T12:09:42.407Z,14060
2018-05-25T12:10:27.547Z,14096
2018-05-25T12:11:13.150Z,13920
2018-05-25T12:12:13.226Z,13608
2018-05-25T12:13:13.218Z,13128
2018-05-25T12:14:13.282Z,10244
2018-05-25T12:15:13.261Z,9852
2018-05-25T12:16:13.046Z,9492
2018-05-25T12:17:13.356Z,9228
2018-05-25T12:18:13.389Z,9152
2018-05-25T12:19:13.385Z,9200
2018-05-25T12:20:13.459Z,9084
2018-05-25T12:22:13.257Z,9424
2018-05-25T12:23:13.518Z,9896
2018-05-25T12:24:28.067Z,10472
2018-05-25T12:25:13.580Z,10668
2018-05-25T12:26:13.083Z,10764
2018-05-25T12:27:13.655Z,10752
2018-05-25T12:28:14.034Z,10408
2018-05-25T12:29:13.740Z,10104
2018-05-25T12:30:13.720Z,9976
2018-05-25T12:31:28.441Z,9996
2018-05-25T12:32:13.785Z,10084
2018-05-25T12:33:13.827Z,10312
2018-05-25T12:34:13.726Z,10756
2018-05-25T12:35:13.389Z,12928
2018-05-25T12:36:13.943Z,13172
2018-05-25T12:37:13.415Z,13184
2018-05-25T12:38:13.986Z,12376
2018-05-25T12:39:28.651Z,10600
2018-05-25T12:40:13.793Z,11924
2018-05-25T12:41:14.054Z,10672
2018-05-25T12:42:14.123Z,10212
2018-05-25T12:43:13.887Z,9924
2018-05-25T12:44:14.156Z,9592
2018-05-25T12:45:14.187Z,9260
2018-05-25T12:46:14.240Z,9108
2018-05-25T12:47:13.710Z,11548
2018-05-25T12:49:14.038Z,11312
2018-05-25T12:50:28.988Z,11088
2018-05-25T12:51:28.496Z,10236
2018-05-25T12:53:14.445Z,8468
2018-05-25T12:54:14.443Z,8232
2018-05-25T12:55:14.503Z,8320
2018-05-25T12:56:28.635Z,8748
2018-05-25T12:57:14.527Z,7816
2018-05-25T12:58:14.329Z,7320
2018-05-25T12:59:29.262Z,7584
2018-05-25T13:01:14.661Z,6940
2018-05-25T13:02:14.715Z,7300
2018-05-25T13:03:14.189Z,7296
2018-05-25T13:04:29.395Z,7576
2018-05-25T13:05:14.522Z,7368
2018-05-25T13:06:14.560Z,7324
2018-05-25T13:07:29.248Z,7212
2018-05-25T13:08:14.854Z,7212
2018-05-25T13:09:14.926Z,6816
2018-05-25T13:10:14.907Z,6836
2018-05-25T13:11:14.967Z,7712
2018-05-25T13:12:29.627Z,7872
2018-05-25T13:14:14.768Z,6004
2018-05-25T13:15:15.097Z,5944
2018-05-25T13:16:15.123Z,6800
2018-05-25T13:17:15.166Z,6996
2018-05-25T13:18:15.153Z,7136
2018-05-25T13:19:15.217Z,7080
2018-05-25T13:20:15.205Z,8068
2018-05-25T13:21:15.248Z,8068
2018-05-25T13:22:29.932Z,7476
2018-05-25T13:23:15.314Z,6840
2018-05-25T13:24:15.364Z,6652
2018-05-25T13:25:15.426Z,6704
2018-05-25T13:26:15.457Z,6676
2018-05-25T13:27:15.410Z,6444
2018-05-25T13:28:29.862Z,6728
2018-05-25T13:29:30.131Z,6488
2018-05-25T13:30:15.522Z,6632
2018-05-25T13:31:15.438Z,6832
2018-05-25T13:32:15.339Z,7612
2018-05-25T13:33:15.587Z,8180
2018-05-25T13:34:15.397Z,8188
2018-05-25T13:35:30.327Z,6224
2018-05-25T13:36:15.438Z,6036
2018-05-25T13:37:15.468Z,6080
2018-05-25T13:38:15.479Z,6180
2018-05-25T13:39:30.187Z,6200
2018-05-25T13:40:15.790Z,6172
2018-05-25T13:42:15.343Z,7272
2018-05-25T13:43:30.552Z,7332
2018-05-25T13:44:30.322Z,7448
2018-05-25T13:45:15.980Z,6416
2018-05-25T13:46:30.621Z,6164
2018-05-25T13:47:16.036Z,6272
2018-05-25T13:48:16.022Z,7100
2018-05-25T13:49:15.888Z,7964
2018-05-25T13:51:16.135Z,8064
2018-05-25T13:52:16.178Z,8172
2018-05-25T13:53:30.822Z,8772
2018-05-25T13:54:15.983Z,8544
2018-05-25T13:55:16.221Z,8764
2018-05-25T13:56:16.267Z,8460
2018-05-25T13:57:16.030Z,8528
2018-05-25T13:58:16.346Z,8364
2018-05-25T13:59:30.772Z,8436
2018-05-25T14:00:16.382Z,8420
2018-05-25T14:01:16.447Z,8328
2018-05-25T14:02:30.830Z,8248
2018-05-25T14:03:16.461Z,8240
2018-05-25T14:04:16.511Z,8220
2018-05-25T14:05:16.286Z,8224
2018-05-25T14:06:16.334Z,8224
2018-05-25T14:07:16.579Z,8496
2018-05-25T14:09:16.389Z,8840
2018-05-25T14:10:16.413Z,8928
2018-05-25T14:11:16.723Z,9036
2018-05-25T14:12:16.714Z,8992
2018-05-25T14:13:16.750Z,8912
2018-05-25T14:15:16.310Z,8808
2018-05-25T14:16:16.891Z,8756
2018-05-25T14:17:16.352Z,8704
2018-05-25T14:18:16.938Z,8624
2018-05-25T14:19:16.671Z,8584